sensor_id;sensor_type;location;lat;lon;timestamp;pressure;altitude;pressure_sealevel;temperature;humidity
68871;BME280;55906;52.278;6.808;2022-12-07T00:01:44;101593.47;;;5.84;85.25
68871;BME280;55906;52.278;6.808;2022-12-07T00:04:14;101594.13;;;5.80;85.90
68871;BME280;55906;52.278;6.808;2022-12-07T00:06:42;101583.50;;;5.77;85.77
68871;BME280;55906;52.278;6.808;2022-12-07T00:09:11;101591.16;;;5.74;85.11
68871;BME280;55906;52.278;6.808;2022-12-07T00:11:38;101595.94;;;5.66;86.19
68871;BME280;55906;52.278;6.808;2022-12-07T00:14:07;101590.66;;;5.65;85.83
68871;BME280;55906;52.278;6.808;2022-12-07T00:16:34;101588.75;;;5.62;85.82
68871;BME280;55906;52.278;6.808;2022-12-07T00:19:02;101586.44;;;5.52;86.39
68871;BME280;55906;52.278;6.808;2022-12-07T00:21:33;101591.75;;;5.54;86.18
68871;BME280;55906;52.278;6.808;2022-12-07T00:24:01;101588.88;;;5.49;86.75
68871;BME280;55906;52.278;6.808;2022-12-07T00:26:29;101595.88;;;5.50;85.92
68871;BME280;55906;52.278;6.808;2022-12-07T00:28:58;101582.66;;;5.47;86.75
68871;BME280;55906;52.278;6.808;2022-12-07T00:31:28;101585.00;;;5.42;86.17
68871;BME280;55906;52.278;6.808;2022-12-07T00:33:55;101582.13;;;5.38;86.61
68871;BME280;55906;52.278;6.808;2022-12-07T00:36:23;101574.84;;;5.32;86.75
68871;BME280;55906;52.278;6.808;2022-12-07T00:38:51;101579.97;;;5.31;86.81
68871;BME280;55906;52.278;6.808;2022-12-07T00:41:19;101578.72;;;5.24;86.69
68871;BME280;55906;52.278;6.808;2022-12-07T00:43:47;101578.53;;;5.21;86.33
68871;BME280;55906;52.278;6.808;2022-12-07T00:46:15;101580.84;;;5.17;87.10
68871;BME280;55906;52.278;6.808;2022-12-07T00:48:42;101575.28;;;5.10;87.03
68871;BME280;55906;52.278;6.808;2022-12-07T00:51:10;101577.88;;;5.10;86.53
68871;BME280;55906;52.278;6.808;2022-12-07T00:53:37;101572.47;;;5.07;86.59
68871;BME280;55906;52.278;6.808;2022-12-07T00:56:07;101578.41;;;5.05;86.62
68871;BME280;55906;52.278;6.808;2022-12-07T00:58:34;101569.59;;;5.03;86.66
68871;BME280;55906;52.278;6.808;2022-12-07T01:01:01;101579.66;;;4.97;86.78
68871;BME280;55906;52.278;6.808;2022-12-07T01:03:28;101567.78;;;4.87;87.13
68871;BME280;55906;52.278;6.808;2022-12-07T01:05:55;101579.31;;;4.91;86.94
68871;BME280;55906;52.278;6.808;2022-12-07T01:08:23;101576.41;;;4.86;87.25
68871;BME280;55906;52.278;6.808;2022-12-07T01:10:58;101578.03;;;4.84;87.16
68871;BME280;55906;52.278;6.808;2022-12-07T01:13:26;101563.84;;;4.79;86.93
68871;BME280;55906;52.278;6.808;2022-12-07T01:15:56;101577.84;;;4.81;86.86
68871;BME280;55906;52.278;6.808;2022-12-07T01:18:23;101571.56;;;4.77;87.30
68871;BME280;55906;52.278;6.808;2022-12-07T01:20:57;101566.25;;;4.76;87.54
68871;BME280;55906;52.278;6.808;2022-12-07T01:23:24;101564.19;;;4.70;87.88
68871;BME280;55906;52.278;6.808;2022-12-07T01:25:54;101576.41;;;4.71;87.17
68871;BME280;55906;52.278;6.808;2022-12-07T01:28:21;101569.13;;;4.66;88.06
68871;BME280;55906;52.278;6.808;2022-12-07T01:30:56;101577.13;;;4.69;87.57
68871;BME280;55906;52.278;6.808;2022-12-07T01:33:23;101574.31;;;4.66;87.70
68871;BME280;55906;52.278;6.808;2022-12-07T01:35:50;101579.44;;;4.64;87.57
68871;BME280;55906;52.278;6.808;2022-12-07T01:38:16;101577.47;;;4.60;87.81
68871;BME280;55906;52.278;6.808;2022-12-07T01:40:43;101570.44;;;4.59;87.67
68871;BME280;55906;52.278;6.808;2022-12-07T01:43:15;101577.38;;;4.59;88.04
68871;BME280;55906;52.278;6.808;2022-12-07T01:45:43;101575.47;;;4.56;88.03
68871;BME280;55906;52.278;6.808;2022-12-07T01:48:13;101573.75;;;4.57;87.86
68871;BME280;55906;52.278;6.808;2022-12-07T01:50:43;101577.97;;;4.55;88.17
68871;BME280;55906;52.278;6.808;2022-12-07T01:53:12;101573.69;;;4.55;88.11
68871;BME280;55906;52.278;6.808;2022-12-07T01:55:42;101574.75;;;4.59;87.68
68871;BME280;55906;52.278;6.808;2022-12-07T01:58:11;101579.06;;;4.58;88.56
68871;BME280;55906;52.278;6.808;2022-12-07T02:00:38;101572.34;;;4.62;88.04
68871;BME280;55906;52.278;6.808;2022-12-07T02:03:08;101574.22;;;4.64;88.19
68871;BME280;55906;52.278;6.808;2022-12-07T02:05:40;101571.53;;;4.63;88.11
68871;BME280;55906;52.278;6.808;2022-12-07T02:08:08;101574.03;;;4.61;87.30
68871;BME280;55906;52.278;6.808;2022-12-07T02:10:36;101576.47;;;4.58;87.62
68871;BME280;55906;52.278;6.808;2022-12-07T02:13:05;101567.56;;;4.55;87.40
68871;BME280;55906;52.278;6.808;2022-12-07T02:15:43;101572.59;;;4.52;87.87
68871;BME280;55906;52.278;6.808;2022-12-07T02:18:16;101573.31;;;4.49;88.13
68871;BME280;55906;52.278;6.808;2022-12-07T02:20:53;101574.19;;;4.49;87.87
68871;BME280;55906;52.278;6.808;2022-12-07T02:23:42;101567.00;;;4.45;88.22
68871;BME280;55906;52.278;6.808;2022-12-07T02:29:24;101562.31;;;4.40;88.37
68871;BME280;55906;52.278;6.808;2022-12-07T02:31:56;101554.41;;;4.38;88.43
68871;BME280;55906;52.278;6.808;2022-12-07T02:34:31;101552.78;;;4.40;88.16
68871;BME280;55906;52.278;6.808;2022-12-07T02:37:02;101559.00;;;4.42;88.62
68871;BME280;55906;52.278;6.808;2022-12-07T02:39:36;101562.88;;;4.49;88.67
68871;BME280;55906;52.278;6.808;2022-12-07T02:42:10;101570.25;;;4.56;87.90
68871;BME280;55906;52.278;6.808;2022-12-07T02:44:40;101570.44;;;4.59;88.33
68871;BME280;55906;52.278;6.808;2022-12-07T02:47:10;101565.44;;;4.62;88.39
68871;BME280;55906;52.278;6.808;2022-12-07T02:49:39;101572.63;;;4.66;88.78
68871;BME280;55906;52.278;6.808;2022-12-07T02:52:06;101569.41;;;4.70;87.99
68871;BME280;55906;52.278;6.808;2022-12-07T02:54:33;101577.91;;;4.68;87.82
68871;BME280;55906;52.278;6.808;2022-12-07T02:57:08;101572.09;;;4.72;87.75
68871;BME280;55906;52.278;6.808;2022-12-07T02:59:45;101570.47;;;4.74;87.39
68871;BME280;55906;52.278;6.808;2022-12-07T03:02:23;101574.88;;;4.75;87.30
68871;BME280;55906;52.278;6.808;2022-12-07T03:05:02;101579.19;;;4.74;87.05
68871;BME280;55906;52.278;6.808;2022-12-07T03:07:39;101572.91;;;4.71;87.24
68871;BME280;55906;52.278;6.808;2022-12-07T03:10:16;101572.19;;;4.73;86.56
68871;BME280;55906;52.278;6.808;2022-12-07T03:12:51;101573.00;;;4.72;87.66
68871;BME280;55906;52.278;6.808;2022-12-07T03:15:25;101570.47;;;4.74;87.12
68871;BME280;55906;52.278;6.808;2022-12-07T03:17:55;101569.47;;;4.72;87.09
68871;BME280;55906;52.278;6.808;2022-12-07T03:20:25;101567.97;;;4.75;86.91
68871;BME280;55906;52.278;6.808;2022-12-07T03:22:54;101574.06;;;4.76;86.96
68871;BME280;55906;52.278;6.808;2022-12-07T03:25:21;101560.06;;;4.74;86.79
68871;BME280;55906;52.278;6.808;2022-12-07T03:27:51;101561.03;;;4.76;86.53
68871;BME280;55906;52.278;6.808;2022-12-07T03:30:23;101563.66;;;4.76;86.70
68871;BME280;55906;52.278;6.808;2022-12-07T03:32:55;101552.22;;;4.74;86.61
68871;BME280;55906;52.278;6.808;2022-12-07T03:35:27;101548.53;;;4.70;86.83
68871;BME280;55906;52.278;6.808;2022-12-07T03:37:57;101546.75;;;4.69;86.28
68871;BME280;55906;52.278;6.808;2022-12-07T03:40:30;101544.84;;;4.67;86.30
68871;BME280;55906;52.278;6.808;2022-12-07T03:43:00;101543.50;;;4.59;86.27
68871;BME280;55906;52.278;6.808;2022-12-07T03:45:40;101539.91;;;4.57;86.65
68871;BME280;55906;52.278;6.808;2022-12-07T03:48:12;101541.41;;;4.53;86.38
68871;BME280;55906;52.278;6.808;2022-12-07T03:50:48;101540.53;;;4.53;86.45
68871;BME280;55906;52.278;6.808;2022-12-07T03:53:20;101540.06;;;4.45;86.97
68871;BME280;55906;52.278;6.808;2022-12-07T03:55:49;101527.75;;;4.42;86.53
68871;BME280;55906;52.278;6.808;2022-12-07T03:58:20;101531.06;;;4.40;86.38
68871;BME280;55906;52.278;6.808;2022-12-07T04:00:50;101541.47;;;4.40;86.45
68871;BME280;55906;52.278;6.808;2022-12-07T04:03:17;101532.56;;;4.36;86.77
68871;BME280;55906;52.278;6.808;2022-12-07T04:05:44;101544.78;;;4.37;86.74
68871;BME280;55906;52.278;6.808;2022-12-07T04:08:11;101543.63;;;4.32;86.59
68871;BME280;55906;52.278;6.808;2022-12-07T04:10:37;101544.78;;;4.37;86.36
68871;BME280;55906;52.278;6.808;2022-12-07T04:13:04;101547.50;;;4.39;86.59
68871;BME280;55906;52.278;6.808;2022-12-07T04:15:30;101538.16;;;4.42;86.55
68871;BME280;55906;52.278;6.808;2022-12-07T04:17:58;101550.56;;;4.46;86.56
68871;BME280;55906;52.278;6.808;2022-12-07T04:20:25;101539.34;;;4.47;86.24
68871;BME280;55906;52.278;6.808;2022-12-07T04:22:52;101546.34;;;4.48;86.58
68871;BME280;55906;52.278;6.808;2022-12-07T04:25:19;101548.16;;;4.49;86.38
68871;BME280;55906;52.278;6.808;2022-12-07T04:27:45;101540.63;;;4.54;86.61
68871;BME280;55906;52.278;6.808;2022-12-07T04:30:12;101538.91;;;4.55;86.16
68871;BME280;55906;52.278;6.808;2022-12-07T04:32:39;101542.50;;;4.57;86.14
68871;BME280;55906;52.278;6.808;2022-12-07T04:35:08;101540.19;;;4.61;85.78
68871;BME280;55906;52.278;6.808;2022-12-07T04:37:35;101536.31;;;4.55;86.29
68871;BME280;55906;52.278;6.808;2022-12-07T04:40:05;101533.69;;;4.55;85.52
68871;BME280;55906;52.278;6.808;2022-12-07T04:42:32;101529.47;;;4.57;86.36
68871;BME280;55906;52.278;6.808;2022-12-07T04:44:59;101540.09;;;4.60;85.76
68871;BME280;55906;52.278;6.808;2022-12-07T04:47:25;101536.31;;;4.55;85.98
68871;BME280;55906;52.278;6.808;2022-12-07T04:49:52;101538.00;;;4.54;85.77
68871;BME280;55906;52.278;6.808;2022-12-07T04:52:20;101532.69;;;4.53;85.91
68871;BME280;55906;52.278;6.808;2022-12-07T04:54:47;101532.53;;;4.49;85.66
68871;BME280;55906;52.278;6.808;2022-12-07T04:57:13;101528.72;;;4.44;85.90
68871;BME280;55906;52.278;6.808;2022-12-07T04:59:40;101533.66;;;4.40;85.89
68871;BME280;55906;52.278;6.808;2022-12-07T05:02:07;101531.78;;;4.37;85.76
68871;BME280;55906;52.278;6.808;2022-12-07T05:04:33;101531.50;;;4.33;85.78
68871;BME280;55906;52.278;6.808;2022-12-07T05:07:00;101525.09;;;4.28;86.16
68871;BME280;55906;52.278;6.808;2022-12-07T05:09:28;101528.59;;;4.28;86.14
68871;BME280;55906;52.278;6.808;2022-12-07T05:11:54;101532.91;;;4.28;86.44
68871;BME280;55906;52.278;6.808;2022-12-07T05:14:21;101534.44;;;4.24;86.71
68871;BME280;55906;52.278;6.808;2022-12-07T05:16:49;101532.81;;;4.26;86.48
68871;BME280;55906;52.278;6.808;2022-12-07T05:19:16;101532.34;;;4.18;86.72
68871;BME280;55906;52.278;6.808;2022-12-07T05:21:46;101536.56;;;4.16;87.28
68871;BME280;55906;52.278;6.808;2022-12-07T05:24:14;101534.75;;;4.15;87.03
68871;BME280;55906;52.278;6.808;2022-12-07T05:26:44;101535.66;;;4.16;86.85
68871;BME280;55906;52.278;6.808;2022-12-07T05:29:11;101540.06;;;4.17;86.74
68871;BME280;55906;52.278;6.808;2022-12-07T05:31:39;101539.88;;;4.14;86.85
68871;BME280;55906;52.278;6.808;2022-12-07T05:34:05;101527.56;;;4.11;86.96
68871;BME280;55906;52.278;6.808;2022-12-07T05:36:32;101534.28;;;4.08;86.97
68871;BME280;55906;52.278;6.808;2022-12-07T05:38:59;101527.91;;;4.03;87.51
68871;BME280;55906;52.278;6.808;2022-12-07T05:41:26;101534.09;;;4.05;86.99
68871;BME280;55906;52.278;6.808;2022-12-07T05:44:11;101528.78;;;4.03;86.94
68871;BME280;55906;52.278;6.808;2022-12-07T05:46:38;101532.91;;;4.00;87.01
68871;BME280;55906;52.278;6.808;2022-12-07T05:49:04;101525.63;;;3.94;87.17
68871;BME280;55906;52.278;6.808;2022-12-07T05:51:31;101528.31;;;3.96;87.44
68871;BME280;55906;52.278;6.808;2022-12-07T05:53:57;101529.22;;;3.96;87.71
68871;BME280;55906;52.278;6.808;2022-12-07T05:56:24;101532.72;;;3.97;87.55
68871;BME280;55906;52.278;6.808;2022-12-07T05:58:51;101535.22;;;3.95;87.82
68871;BME280;55906;52.278;6.808;2022-12-07T06:01:37;101528.50;;;3.99;87.52
68871;BME280;55906;52.278;6.808;2022-12-07T06:04:04;101523.91;;;3.95;87.45
68871;BME280;55906;52.278;6.808;2022-12-07T06:06:30;101517.91;;;3.96;87.29
68871;BME280;55906;52.278;6.808;2022-12-07T06:08:57;101517.09;;;3.97;86.90
68871;BME280;55906;52.278;6.808;2022-12-07T06:11:23;101521.22;;;3.93;87.36
68871;BME280;55906;52.278;6.808;2022-12-07T06:14:08;101528.13;;;3.93;87.45
68871;BME280;55906;52.278;6.808;2022-12-07T06:16:34;101520.09;;;3.90;87.18
68871;BME280;55906;52.278;6.808;2022-12-07T06:19:02;101525.09;;;3.86;87.29
68871;BME280;55906;52.278;6.808;2022-12-07T06:21:29;101521.50;;;3.84;87.48
68871;BME280;55906;52.278;6.808;2022-12-07T06:23:56;101527.41;;;3.82;88.10
68871;BME280;55906;52.278;6.808;2022-12-07T06:26:22;101529.22;;;3.83;87.71
68871;BME280;55906;52.278;6.808;2022-12-07T06:28:49;101529.91;;;3.80;88.22
68871;BME280;55906;52.278;6.808;2022-12-07T06:31:16;101529.81;;;3.79;88.45
68871;BME280;55906;52.278;6.808;2022-12-07T06:33:42;101526.31;;;3.78;87.98
68871;BME280;55906;52.278;6.808;2022-12-07T06:36:10;101534.84;;;3.76;88.02
68871;BME280;55906;52.278;6.808;2022-12-07T06:38:37;101525.84;;;3.71;88.44
68871;BME280;55906;52.278;6.808;2022-12-07T06:41:04;101539.75;;;3.71;88.72
68871;BME280;55906;52.278;6.808;2022-12-07T06:43:31;101531.94;;;3.71;88.43
68871;BME280;55906;52.278;6.808;2022-12-07T06:45:58;101534.72;;;3.74;87.84
68871;BME280;55906;52.278;6.808;2022-12-07T06:48:25;101535.53;;;3.73;88.19
68871;BME280;55906;52.278;6.808;2022-12-07T06:50:51;101533.75;;;3.72;87.95
68871;BME280;55906;52.278;6.808;2022-12-07T06:53:20;101534.34;;;3.68;88.37
68871;BME280;55906;52.278;6.808;2022-12-07T06:55:46;101532.53;;;3.67;88.33
68871;BME280;55906;52.278;6.808;2022-12-07T06:58:13;101531.66;;;3.67;87.87
68871;BME280;55906;52.278;6.808;2022-12-07T07:00:39;101538.34;;;3.63;87.75
68871;BME280;55906;52.278;6.808;2022-12-07T07:03:06;101530.34;;;3.60;88.48
68871;BME280;55906;52.278;6.808;2022-12-07T07:05:33;101531.97;;;3.58;88.46
68871;BME280;55906;52.278;6.808;2022-12-07T07:07:59;101539.66;;;3.57;88.58
68871;BME280;55906;52.278;6.808;2022-12-07T07:10:27;101548.38;;;3.57;87.84
68871;BME280;55906;52.278;6.808;2022-12-07T07:12:54;101546.56;;;3.56;88.08
68871;BME280;55906;52.278;6.808;2022-12-07T07:15:21;101533.16;;;3.50;88.10
68871;BME280;55906;52.278;6.808;2022-12-07T07:17:47;101544.88;;;3.57;88.33
68871;BME280;55906;52.278;6.808;2022-12-07T07:20:14;101545.75;;;3.57;87.87
68871;BME280;55906;52.278;6.808;2022-12-07T07:22:41;101556.38;;;3.60;88.21
68871;BME280;55906;52.278;6.808;2022-12-07T07:25:08;101558.47;;;3.66;88.45
68871;BME280;55906;52.278;6.808;2022-12-07T07:27:36;101554.34;;;3.69;88.40
68871;BME280;55906;52.278;6.808;2022-12-07T07:30:03;101553.75;;;3.73;88.46
68871;BME280;55906;52.278;6.808;2022-12-07T07:32:30;101555.53;;;3.74;87.91
68871;BME280;55906;52.278;6.808;2022-12-07T07:34:57;101566.16;;;3.77;87.79
68871;BME280;55906;52.278;6.808;2022-12-07T07:37:23;101561.94;;;3.79;87.86
68871;BME280;55906;52.278;6.808;2022-12-07T07:39:50;101556.94;;;3.82;87.83
68871;BME280;55906;52.278;6.808;2022-12-07T07:42:17;101555.44;;;3.86;87.68
68871;BME280;55906;52.278;6.808;2022-12-07T07:44:45;101563.56;;;3.91;88.09
68871;BME280;55906;52.278;6.808;2022-12-07T07:47:11;101558.34;;;3.91;88.13
68871;BME280;55906;52.278;6.808;2022-12-07T07:49:38;101561.44;;;3.98;87.82
68871;BME280;55906;52.278;6.808;2022-12-07T07:52:05;101557.34;;;4.02;87.87
68871;BME280;55906;52.278;6.808;2022-12-07T07:54:31;101563.03;;;4.09;87.65
68871;BME280;55906;52.278;6.808;2022-12-07T07:56:58;101559.72;;;4.12;87.59
68871;BME280;55906;52.278;6.808;2022-12-07T07:59:25;101550.28;;;4.14;87.67
68871;BME280;55906;52.278;6.808;2022-12-07T08:01:53;101553.09;;;4.17;87.19
68871;BME280;55906;52.278;6.808;2022-12-07T08:04:20;101554.16;;;4.21;86.91
68871;BME280;55906;52.278;6.808;2022-12-07T08:06:46;101551.25;;;4.29;87.26
68871;BME280;55906;52.278;6.808;2022-12-07T08:09:13;101554.94;;;4.33;86.69
68871;BME280;55906;52.278;6.808;2022-12-07T08:11:39;101558.97;;;4.28;86.70
68871;BME280;55906;52.278;6.808;2022-12-07T08:14:06;101560.66;;;4.27;86.71
68871;BME280;55906;52.278;6.808;2022-12-07T08:16:33;101563.25;;;4.27;86.76
68871;BME280;55906;52.278;6.808;2022-12-07T08:19:01;101571.06;;;4.27;86.37
68871;BME280;55906;52.278;6.808;2022-12-07T08:21:27;101548.06;;;4.20;86.54
68871;BME280;55906;52.278;6.808;2022-12-07T08:23:54;101563.69;;;4.20;86.68
68871;BME280;55906;52.278;6.808;2022-12-07T08:26:20;101568.19;;;4.23;87.04
68871;BME280;55906;52.278;6.808;2022-12-07T08:28:47;101569.88;;;4.22;86.43
68871;BME280;55906;52.278;6.808;2022-12-07T08:31:16;101572.69;;;4.25;86.74
68871;BME280;55906;52.278;6.808;2022-12-07T08:33:45;101573.16;;;4.33;86.85
68871;BME280;55906;52.278;6.808;2022-12-07T08:36:13;101565.91;;;4.42;86.59
68871;BME280;55906;52.278;6.808;2022-12-07T08:38:41;101565.66;;;4.52;86.11
68871;BME280;55906;52.278;6.808;2022-12-07T08:41:08;101562.72;;;4.61;86.11
68871;BME280;55906;52.278;6.808;2022-12-07T08:43:34;101563.31;;;4.99;85.78
68871;BME280;55906;52.278;6.808;2022-12-07T08:46:07;101563.50;;;5.46;84.31
68871;BME280;55906;52.278;6.808;2022-12-07T08:48:38;101563.88;;;5.84;83.36
68871;BME280;55906;52.278;6.808;2022-12-07T08:51:06;101562.75;;;6.26;84.38
68871;BME280;55906;52.278;6.808;2022-12-07T08:53:35;101562.91;;;6.45;82.04
68871;BME280;55906;52.278;6.808;2022-12-07T08:56:04;101556.38;;;6.86;81.62
68871;BME280;55906;52.278;6.808;2022-12-07T08:58:32;101555.63;;;7.22;80.58
68871;BME280;55906;52.278;6.808;2022-12-07T09:00:59;101561.56;;;7.36;79.10
68871;BME280;55906;52.278;6.808;2022-12-07T09:03:26;101554.59;;;7.36;79.45
68871;BME280;55906;52.278;6.808;2022-12-07T09:05:53;101562.31;;;7.69;78.53
68871;BME280;55906;52.278;6.808;2022-12-07T09:08:20;101562.19;;;7.84;78.65
68871;BME280;55906;52.278;6.808;2022-12-07T09:10:49;101563.22;;;8.24;77.22
68871;BME280;55906;52.278;6.808;2022-12-07T09:13:16;101563.56;;;8.69;75.74
68871;BME280;55906;52.278;6.808;2022-12-07T09:15:42;101562.50;;;9.25;74.58
68871;BME280;55906;52.278;6.808;2022-12-07T09:18:09;101563.69;;;9.75;73.48
68871;BME280;55906;52.278;6.808;2022-12-07T09:20:35;101550.44;;;10.16;71.84
68871;BME280;55906;52.278;6.808;2022-12-07T09:23:02;101551.84;;;10.29;70.81
68871;BME280;55906;52.278;6.808;2022-12-07T09:25:31;101552.97;;;10.36;71.65
68871;BME280;55906;52.278;6.808;2022-12-07T09:27:59;101553.69;;;10.54;68.70
68871;BME280;55906;52.278;6.808;2022-12-07T09:30:26;101554.53;;;10.53;66.62
68871;BME280;55906;52.278;6.808;2022-12-07T09:32:53;101546.28;;;10.68;65.60
68871;BME280;55906;52.278;6.808;2022-12-07T09:35:20;101547.13;;;11.16;65.20
68871;BME280;55906;52.278;6.808;2022-12-07T09:37:47;101540.31;;;11.75;65.42
68871;BME280;55906;52.278;6.808;2022-12-07T09:40:14;101537.34;;;12.20;63.28
68871;BME280;55906;52.278;6.808;2022-12-07T09:42:44;101531.94;;;12.45;63.27
68871;BME280;55906;52.278;6.808;2022-12-07T09:45:15;101544.38;;;12.80;60.89
68871;BME280;55906;52.278;6.808;2022-12-07T09:47:42;101538.25;;;12.81;57.81
68871;BME280;55906;52.278;6.808;2022-12-07T09:50:14;101538.94;;;13.06;57.19
68871;BME280;55906;52.278;6.808;2022-12-07T09:52:41;101538.50;;;13.57;57.54
68871;BME280;55906;52.278;6.808;2022-12-07T09:55:12;101535.06;;;13.25;58.54
68871;BME280;55906;52.278;6.808;2022-12-07T09:57:40;101546.28;;;12.25;57.83
68871;BME280;55906;52.278;6.808;2022-12-07T10:00:14;101545.06;;;11.60;58.67
68871;BME280;55906;52.278;6.808;2022-12-07T10:02:43;101545.44;;;11.18;59.75
68871;BME280;55906;52.278;6.808;2022-12-07T10:05:13;101541.69;;;10.86;60.36
68871;BME280;55906;52.278;6.808;2022-12-07T10:07:41;101540.91;;;10.65;60.70
68871;BME280;55906;52.278;6.808;2022-12-07T10:10:14;101540.66;;;10.57;60.78
68871;BME280;55906;52.278;6.808;2022-12-07T10:12:58;101535.31;;;10.79;59.77
68871;BME280;55906;52.278;6.808;2022-12-07T10:18:29;101532.84;;;11.87;57.08
68871;BME280;55906;52.278;6.808;2022-12-07T10:21:02;101527.38;;;12.09;57.45
68871;BME280;55906;52.278;6.808;2022-12-07T10:23:29;101527.91;;;11.71;58.32
68871;BME280;55906;52.278;6.808;2022-12-07T10:25:56;101527.66;;;11.65;57.74
68871;BME280;55906;52.278;6.808;2022-12-07T10:28:22;101530.06;;;11.57;58.04
68871;BME280;55906;52.278;6.808;2022-12-07T10:30:52;101518.78;;;11.09;58.68
68871;BME280;55906;52.278;6.808;2022-12-07T10:33:35;101518.91;;;11.39;58.10
68871;BME280;55906;52.278;6.808;2022-12-07T10:36:17;101510.06;;;12.49;56.07
68871;BME280;55906;52.278;6.808;2022-12-07T10:38:47;101505.94;;;12.92;54.74
68871;BME280;55906;52.278;6.808;2022-12-07T10:41:14;101503.91;;;13.85;52.89
68871;BME280;55906;52.278;6.808;2022-12-07T10:43:47;101494.81;;;14.52;50.15
68871;BME280;55906;52.278;6.808;2022-12-07T10:46:34;101491.44;;;14.59;49.40
68871;BME280;55906;52.278;6.808;2022-12-07T10:49:16;101490.72;;;15.18;48.50
68871;BME280;55906;52.278;6.808;2022-12-07T10:51:56;101484.88;;;15.37;47.53
68871;BME280;55906;52.278;6.808;2022-12-07T10:54:32;101474.28;;;15.94;46.96
68871;BME280;55906;52.278;6.808;2022-12-07T10:57:19;101483.22;;;15.99;44.88
68871;BME280;55906;52.278;6.808;2022-12-07T11:00:01;101479.47;;;15.85;45.33
68871;BME280;55906;52.278;6.808;2022-12-07T11:02:46;101474.09;;;15.81;45.46
68871;BME280;55906;52.278;6.808;2022-12-07T11:05:25;101466.41;;;16.00;45.03
68871;BME280;55906;52.278;6.808;2022-12-07T11:08:02;101477.19;;;16.13;44.43
68871;BME280;55906;52.278;6.808;2022-12-07T11:10:39;101457.59;;;16.03;44.53
68871;BME280;55906;52.278;6.808;2022-12-07T11:13:19;101452.47;;;16.94;43.57
68871;BME280;55906;52.278;6.808;2022-12-07T11:16:02;101442.94;;;17.17;43.88
68871;BME280;55906;52.278;6.808;2022-12-07T11:18:39;101442.94;;;17.19;41.87
68871;BME280;55906;52.278;6.808;2022-12-07T11:21:17;101437.53;;;17.08;42.32
68871;BME280;55906;52.278;6.808;2022-12-07T11:23:49;101441.88;;;16.20;43.39
68871;BME280;55906;52.278;6.808;2022-12-07T11:26:29;101435.84;;;15.63;45.34
68871;BME280;55906;52.278;6.808;2022-12-07T11:29:17;101432.00;;;16.07;43.37
68871;BME280;55906;52.278;6.808;2022-12-07T11:31:57;101436.59;;;16.21;42.88
68871;BME280;55906;52.278;6.808;2022-12-07T11:34:36;101446.19;;;15.51;44.09
68871;BME280;55906;52.278;6.808;2022-12-07T11:37:10;101443.53;;;14.47;45.99
68871;BME280;55906;52.278;6.808;2022-12-07T11:39:44;101446.00;;;13.97;47.98
68871;BME280;55906;52.278;6.808;2022-12-07T11:42:16;101436.63;;;13.72;48.08
68871;BME280;55906;52.278;6.808;2022-12-07T11:44:49;101433.97;;;13.33;48.83
68871;BME280;55906;52.278;6.808;2022-12-07T11:47:25;101425.13;;;12.98;49.96
68871;BME280;55906;52.278;6.808;2022-12-07T11:49:54;101426.25;;;12.73;50.82
68871;BME280;55906;52.278;6.808;2022-12-07T11:52:30;101434.41;;;12.49;51.18
68871;BME280;55906;52.278;6.808;2022-12-07T11:55:00;101425.63;;;12.83;51.18
68871;BME280;55906;52.278;6.808;2022-12-07T11:57:34;101423.91;;;13.55;49.77
68871;BME280;55906;52.278;6.808;2022-12-07T12:00:06;101418.09;;;14.13;48.19
68871;BME280;55906;52.278;6.808;2022-12-07T12:02:44;101421.66;;;14.57;47.49
68871;BME280;55906;52.278;6.808;2022-12-07T12:05:17;101415.34;;;15.00;46.06
68871;BME280;55906;52.278;6.808;2022-12-07T12:07:48;101401.09;;;15.50;45.85
68871;BME280;55906;52.278;6.808;2022-12-07T12:10:22;101412.03;;;15.68;44.33
68871;BME280;55906;52.278;6.808;2022-12-07T12:13:19;101413.56;;;15.57;43.99
68871;BME280;55906;52.278;6.808;2022-12-07T12:16:02;101415.56;;;15.13;44.76
68871;BME280;55906;52.278;6.808;2022-12-07T12:18:53;101415.63;;;14.64;45.88
68871;BME280;55906;52.278;6.808;2022-12-07T12:21:27;101413.59;;;14.51;46.90
68871;BME280;55906;52.278;6.808;2022-12-07T12:23:58;101417.75;;;14.38;47.29
68871;BME280;55906;52.278;6.808;2022-12-07T12:26:27;101411.25;;;13.81;48.53
68871;BME280;55906;52.278;6.808;2022-12-07T12:28:56;101415.66;;;13.41;49.13
68871;BME280;55906;52.278;6.808;2022-12-07T12:31:34;101409.88;;;12.87;50.48
68871;BME280;55906;52.278;6.808;2022-12-07T12:34:10;101412.34;;;12.14;51.83
68871;BME280;55906;52.278;6.808;2022-12-07T12:36:51;101412.22;;;11.80;52.78
68871;BME280;55906;52.278;6.808;2022-12-07T12:39:18;101406.34;;;11.33;54.08
68871;BME280;55906;52.278;6.808;2022-12-07T12:41:57;101406.13;;;10.99;54.95
68871;BME280;55906;52.278;6.808;2022-12-07T12:48:02;101398.22;;;10.46;57.00
68871;BME280;55906;52.278;6.808;2022-12-07T12:50:31;101402.53;;;10.20;57.73
68871;BME280;55906;52.278;6.808;2022-12-07T12:53:19;101400.88;;;10.00;59.26
68871;BME280;55906;52.278;6.808;2022-12-07T12:56:19;101396.84;;;9.86;59.21
68871;BME280;55906;52.278;6.808;2022-12-07T12:59:23;101404.63;;;9.60;60.39
68871;BME280;55906;52.278;6.808;2022-12-07T13:01:50;101390.31;;;9.52;60.38
68871;BME280;55906;52.278;6.808;2022-12-07T13:07:12;101389.97;;;9.21;61.40
68871;BME280;55906;52.278;6.808;2022-12-07T13:09:44;101393.72;;;9.07;62.54
68871;BME280;55906;52.278;6.808;2022-12-07T13:12:13;101392.28;;;9.13;62.96
68871;BME280;55906;52.278;6.808;2022-12-07T13:14:53;101382.97;;;9.21;62.71
68871;BME280;55906;52.278;6.808;2022-12-07T13:18:03;101378.56;;;9.43;63.00
68871;BME280;55906;52.278;6.808;2022-12-07T13:20:50;101377.78;;;9.91;61.72
68871;BME280;55906;52.278;6.808;2022-12-07T13:23:23;101375.59;;;10.04;60.85
68871;BME280;55906;52.278;6.808;2022-12-07T13:26:16;101369.22;;;9.97;61.30
68871;BME280;55906;52.278;6.808;2022-12-07T13:28:45;101365.03;;;9.78;61.66